createdAt,value
2022-11-09T00:01:43.401Z,97930.91
2022-11-09T00:04:11.063Z,97931.56
2022-11-09T00:06:38.070Z,97931.56
2022-11-09T00:09:08.099Z,97929.81
2022-11-09T00:11:36.219Z,97939.59
2022-11-09T00:14:03.064Z,97933.19
2022-11-09T00:16:29.595Z,97937.63
2022-11-09T00:18:56.305Z,97940.63
2022-11-09T00:21:24.947Z,97938.03
2022-11-09T00:23:52.701Z,97931.91
2022-11-09T00:26:20.658Z,97929.97
2022-11-09T00:28:47.756Z,97939.59
2022-11-09T00:31:20.554Z,97932.41
2022-11-09T00:33:52.126Z,97924.53
2022-11-09T00:36:20.987Z,97925.63
2022-11-09T00:38:52.891Z,97927.69
2022-11-09T00:41:20.183Z,97928.41
2022-11-09T00:43:47.783Z,97926.03
2022-11-09T00:46:15.336Z,97924.84
2022-11-09T00:48:42.121Z,97927.31
2022-11-09T00:51:09.423Z,97929.97
2022-11-09T00:53:36.207Z,97925.47
2022-11-09T00:56:08.814Z,97936.97
2022-11-09T00:58:38.359Z,97930.25
2022-11-09T01:01:17.371Z,97932.69
2022-11-09T01:03:45.241Z,97929.38
2022-11-09T01:06:24.024Z,97925.81
2022-11-09T01:08:51.228Z,97924.97
2022-11-09T01:11:19.491Z,97925.31
2022-11-09T01:13:46.601Z,97926.81
2022-11-09T01:16:16.458Z,97928.81
2022-11-09T01:18:43.428Z,97916.03
2022-11-09T01:21:13.286Z,97922.25
2022-11-09T01:23:40.629Z,97928.47
2022-11-09T01:26:09.782Z,97923.19
2022-11-09T01:28:36.945Z,97922.66
2022-11-09T01:31:10.613Z,97919.69
2022-11-09T01:33:37.120Z,97925.66
2022-11-09T01:36:09.086Z,97917.13
2022-11-09T01:38:37.922Z,97920.59
2022-11-09T01:41:06.805Z,97911.84
2022-11-09T01:43:33.730Z,97912.09
2022-11-09T01:46:26.123Z,97905.13
2022-11-09T01:48:55.516Z,97901.63
2022-11-09T01:51:36.746Z,97885.03
2022-11-09T01:54:27.595Z,97891.25
2022-11-09T01:56:59.861Z,97891.41
2022-11-09T01:59:32.006Z,97887.06
2022-11-09T02:02:00.794Z,97898.91
2022-11-09T02:04:33.771Z,97894.06
2022-11-09T02:07:00.746Z,97889.66
2022-11-09T02:09:39.366Z,97880.03
2022-11-09T02:12:07.321Z,97874.22
2022-11-09T02:14:36.485Z,97871.06
2022-11-09T02:17:03.326Z,97877.28
2022-11-09T02:19:30.075Z,97875.66
2022-11-09T02:21:57.155Z,97884.50
2022-11-09T02:24:23.758Z,97890.63
2022-11-09T02:26:52.656Z,97897.09
2022-11-09T02:29:23.854Z,97889.31
2022-11-09T02:31:54.629Z,97895.44
2022-11-09T02:34:22.302Z,97894.22
2022-11-09T02:36:48.955Z,97893.22
2022-11-09T02:39:18.827Z,97892.91
2022-11-09T02:41:51.779Z,97893.13
2022-11-09T02:44:19.016Z,97899.75
2022-11-09T02:46:46.261Z,97900.41
2022-11-09T02:49:12.956Z,97903.72
2022-11-09T02:51:39.622Z,97895.88
2022-11-09T02:54:06.388Z,97901.53
2022-11-09T02:56:33.115Z,97895.66
2022-11-09T02:58:59.733Z,97899.13
2022-11-09T03:01:26.450Z,97904.31
2022-11-09T03:03:53.084Z,97907.75
2022-11-09T03:06:19.774Z,97907.41
2022-11-09T03:08:46.639Z,97906.03
2022-11-09T03:11:13.183Z,97918.91
2022-11-09T03:13:39.881Z,97918.13
2022-11-09T03:16:07.484Z,97921.47
2022-11-09T03:18:34.173Z,97926.56
2022-11-09T03:21:02.316Z,97917.28
2022-11-09T03:23:29.382Z,97918.13
2022-11-09T03:25:56.050Z,97937.94
2022-11-09T03:28:22.770Z,97935.75
2022-11-09T03:30:49.467Z,97938.84
2022-11-09T03:33:16.270Z,97924.59
2022-11-09T03:35:43.983Z,97923.34
2022-11-09T03:38:10.735Z,97919.44
2022-11-09T03:40:37.530Z,97914.00
2022-11-09T03:43:04.196Z,97923.25
2022-11-09T03:45:30.915Z,97924.53
2022-11-09T03:48:00.251Z,97932.75
2022-11-09T03:50:28.691Z,97928.03
2022-11-09T03:52:55.802Z,97922.66
2022-11-09T03:55:22.926Z,97923.22
2022-11-09T03:57:49.730Z,97932.03
2022-11-09T04:00:19.132Z,97919.56
2022-11-09T04:02:45.865Z,97925.72
2022-11-09T04:05:13.051Z,97923.22
2022-11-09T04:07:40.100Z,97921.28
2022-11-09T04:10:07.729Z,97927.34
2022-11-09T04:12:34.628Z,97930.19
2022-11-09T04:15:01.223Z,97931.03
2022-11-09T04:17:27.916Z,97932.16
2022-11-09T04:19:54.586Z,97929.50
2022-11-09T04:22:21.261Z,97930.31
2022-11-09T04:24:47.902Z,97930.19
2022-11-09T04:27:14.469Z,97937.41
2022-11-09T04:29:41.198Z,97926.97
2022-11-09T04:32:07.906Z,97933.94
2022-11-09T04:34:34.477Z,97938.41
2022-11-09T04:37:02.058Z,97945.72
2022-11-09T04:39:28.633Z,97940.13
2022-11-09T04:41:55.236Z,97936.84
2022-11-09T04:44:21.737Z,97940.13
2022-11-09T04:46:48.296Z,97931.31
2022-11-09T04:49:14.987Z,97944.28
2022-11-09T04:51:41.620Z,97933.88
2022-11-09T04:54:08.325Z,97933.75
2022-11-09T04:56:35.044Z,97921.50
2022-11-09T04:59:02.135Z,97926.97
2022-11-09T05:01:28.822Z,97921.94
2022-11-09T05:03:55.617Z,97911.41
2022-11-09T05:06:34.427Z,97911.41
2022-11-09T05:09:04.822Z,97904.44
2022-11-09T05:11:32.635Z,97904.38
2022-11-09T05:13:59.888Z,97900.16
2022-11-09T05:16:26.570Z,97902.63
2022-11-09T05:18:53.216Z,97892.41
2022-11-09T05:21:19.883Z,97878.19
2022-11-09T05:23:59.131Z,97883.03
2022-11-09T05:26:37.737Z,97877.53
2022-11-09T05:29:07.716Z,97865.38
2022-11-09T05:31:34.732Z,97852.06
2022-11-09T05:34:01.855Z,97836.16
2022-11-09T05:36:29.677Z,97837.00
2022-11-09T05:38:56.815Z,97830.88
2022-11-09T05:41:24.051Z,97823.00
2022-11-09T05:43:50.703Z,97820.88
2022-11-09T05:46:18.209Z,97812.91
2022-11-09T05:48:45.446Z,97800.50
2022-11-09T05:51:14.235Z,97784.53
2022-11-09T05:53:45.152Z,97769.28
2022-11-09T05:56:13.724Z,97754.81
2022-11-09T05:58:41.488Z,97774.19
2022-11-09T06:01:11.454Z,97788.81
2022-11-09T06:03:38.408Z,97811.41
2022-11-09T06:06:08.799Z,97812.38
2022-11-09T06:08:36.165Z,97828.75
2022-11-09T06:11:09.092Z,97823.16
2022-11-09T06:13:36.490Z,97837.63
2022-11-09T06:16:05.031Z,97836.72
2022-11-09T06:18:33.668Z,97845.19
2022-11-09T06:21:02.827Z,97853.16
2022-11-09T06:23:30.393Z,97864.63
2022-11-09T06:25:57.815Z,97864.47
2022-11-09T06:28:24.746Z,97861.63
2022-11-09T06:30:51.838Z,97872.97
2022-11-09T06:33:18.795Z,97872.09
2022-11-09T06:35:45.625Z,97880.88
2022-11-09T06:38:12.217Z,97890.53
2022-11-09T06:40:39.447Z,97894.09
2022-11-09T06:43:06.892Z,97896.69
2022-11-09T06:45:34.569Z,97895.88
2022-11-09T06:48:03.226Z,97896.41
2022-11-09T06:50:32.347Z,97905.59
2022-11-09T06:53:04.100Z,97911.44
2022-11-09T06:55:32.614Z,97913.94
2022-11-09T06:58:00.193Z,97883.09
2022-11-09T07:00:28.452Z,97891.59
2022-11-09T07:02:55.033Z,97903.72
2022-11-09T07:05:21.846Z,97904.78
2022-11-09T07:07:48.925Z,97898.81
2022-11-09T07:10:16.403Z,97891.63
2022-11-09T07:12:43.099Z,97892.47
2022-11-09T07:15:11.714Z,97904.66
2022-11-09T07:17:39.947Z,97894.91
2022-11-09T07:20:08.925Z,97905.44
2022-11-09T07:22:39.552Z,97894.91
2022-11-09T07:25:11.301Z,97892.03
2022-11-09T07:27:37.893Z,97895.72
2022-11-09T07:30:05.179Z,97878.84
2022-11-09T07:35:23.642Z,97889.94
2022-11-09T07:37:50.293Z,97882.72
2022-11-09T07:40:17.250Z,97879.94
2022-11-09T07:42:43.982Z,97881.34
2022-11-09T07:45:11.074Z,97880.72
2022-11-09T07:47:37.684Z,97880.34
2022-11-09T07:50:04.988Z,97889.91
2022-11-09T07:52:31.589Z,97897.63
2022-11-09T07:54:58.203Z,97904.59
2022-11-09T07:57:24.877Z,97897.50
2022-11-09T07:59:53.673Z,97899.22
2022-11-09T08:02:20.436Z,97896.66
2022-11-09T08:04:47.265Z,97904.28
2022-11-09T08:07:13.901Z,97914.84
2022-11-09T08:09:40.745Z,97918.09
2022-11-09T08:12:07.457Z,97928.56
2022-11-09T08:14:34.243Z,97933.91
2022-11-09T08:17:02.623Z,97928.88
2022-11-09T08:19:29.195Z,97923.59
2022-11-09T08:21:58.053Z,97932.34
2022-11-09T08:24:24.718Z,97933.25
2022-11-09T08:26:51.349Z,97932.19
2022-11-09T08:29:17.980Z,97924.81
2022-11-09T08:31:44.577Z,97927.22
2022-11-09T08:34:14.033Z,97935.38
2022-11-09T08:36:40.794Z,97943.28
2022-11-09T08:39:07.728Z,97933.66
2022-11-09T08:41:34.379Z,97918.03
2022-11-09T08:44:00.926Z,97914.31
2022-11-09T08:46:27.695Z,97912.34
2022-11-09T08:48:54.317Z,97913.78
2022-11-09T08:51:20.965Z,97911.25
2022-11-09T08:53:47.814Z,97906.06
2022-11-09T08:56:18.517Z,97906.31
2022-11-09T08:58:46.049Z,97892.66
2022-11-09T09:01:16.979Z,97881.19
2022-11-09T09:03:44.211Z,97869.28
2022-11-09T09:06:10.815Z,97869.28
2022-11-09T09:08:37.353Z,97874.66
2022-11-09T09:11:05.561Z,97859.44
2022-11-09T09:13:33.281Z,97861.72
2022-11-09T09:16:13.158Z,97865.09
2022-11-09T09:18:39.832Z,97839.81
2022-11-09T09:21:08.898Z,97847.03
2022-11-09T09:23:35.670Z,97856.56
2022-11-09T09:26:02.388Z,97862.38
2022-11-09T09:28:28.995Z,97868.09
2022-11-09T09:31:00.899Z,97874.88
2022-11-09T09:33:28.398Z,97864.84
2022-11-09T09:35:57.885Z,97897.88
2022-11-09T09:38:25.967Z,97891.16
2022-11-09T09:41:00.883Z,97904.34
2022-11-09T09:43:41.559Z,97903.25
2022-11-09T09:46:35.631Z,97921.91
2022-11-09T09:49:14.005Z,97920.19
2022-11-09T09:51:51.923Z,97914.25
2022-11-09T09:54:22.544Z,97918.41
2022-11-09T09:56:50.965Z,97932.88
2022-11-09T09:59:29.077Z,97919.41
2022-11-09T10:01:57.774Z,97905.31
2022-11-09T10:04:41.757Z,97907.81
2022-11-09T10:07:18.492Z,97895.63
2022-11-09T10:10:12.552Z,97915.38
2022-11-09T10:13:17.351Z,97898.38
2022-11-09T10:16:01.833Z,97906.50
2022-11-09T10:18:46.557Z,97913.66
2022-11-09T10:21:34.552Z,97913.66
2022-11-09T10:24:18.116Z,97924.69
2022-11-09T10:26:50.000Z,97937.25
2022-11-09T10:29:25.385Z,97941.63
2022-11-09T10:32:00.885Z,97931.81
2022-11-09T10:34:38.267Z,97945.84
2022-11-09T10:37:13.914Z,97966.25
2022-11-09T10:39:47.969Z,97963.53
2022-11-09T10:42:14.618Z,97967.97
2022-11-09T10:44:41.353Z,97965.19
2022-11-09T10:47:11.555Z,97966.47
2022-11-09T10:49:39.177Z,97963.66
2022-11-09T10:52:26.501Z,97974.41
2022-11-09T10:54:53.164Z,97970.13
2022-11-09T10:57:24.778Z,97967.66
2022-11-09T10:59:54.968Z,97967.97
2022-11-09T11:02:24.615Z,97969.47
2022-11-09T11:05:12.864Z,97979.13
2022-11-09T11:07:39.550Z,97976.63
2022-11-09T11:10:24.561Z,97982.25
2022-11-09T11:13:00.050Z,97979.13
2022-11-09T11:15:38.557Z,97993.97
2022-11-09T11:18:15.219Z,97979.34
2022-11-09T11:20:41.905Z,97984.19
2022-11-09T11:23:11.483Z,97979.00
2022-11-09T11:25:53.382Z,97985.41
2022-11-09T11:28:28.102Z,97979.84
2022-11-09T11:30:55.331Z,97984.75
2022-11-09T11:33:24.823Z,97988.34
2022-11-09T11:36:09.800Z,97979.25
2022-11-09T11:38:41.981Z,97972.09
2022-11-09T11:41:30.596Z,97978.59
2022-11-09T11:44:08.254Z,97967.38
2022-11-09T11:46:54.563Z,97974.97
2022-11-09T11:49:21.263Z,97971.53
2022-11-09T11:52:07.895Z,97975.81
2022-11-09T11:54:42.627Z,97959.72
2022-11-09T11:57:34.167Z,97961.94
2022-11-09T12:00:15.513Z,97958.00
2022-11-09T12:02:57.351Z,97960.97
2022-11-09T12:05:48.362Z,97963.28
2022-11-09T12:08:25.707Z,97955.66
2022-11-09T12:11:36.992Z,97960.03
2022-11-09T12:14:26.804Z,97948.38
2022-11-09T12:17:03.565Z,97950.97
2022-11-09T12:19:52.647Z,97960.63
2022-11-09T12:22:38.830Z,97952.47
2022-11-09T12:25:27.453Z,97952.59
2022-11-09T12:28:05.886Z,97953.69
2022-11-09T12:30:48.015Z,97952.88
2022-11-09T12:33:34.209Z,97956.97
2022-11-09T12:36:12.132Z,97954.63
2022-11-09T12:38:58.262Z,97965.34
2022-11-09T12:41:30.319Z,97969.47
2022-11-09T12:44:04.156Z,97978.38
2022-11-09T12:46:40.422Z,97971.94
2022-11-09T12:49:22.527Z,97978.59
2022-11-09T12:51:49.667Z,97983.34
2022-11-09T12:54:16.589Z,97983.91
2022-11-09T12:56:57.368Z,97972.25
2022-11-09T12:59:26.973Z,97965.00
2022-11-09T13:01:59.983Z,97964.91
2022-11-09T13:04:27.435Z,97961.50
2022-11-09T13:07:09.657Z,97951.59
2022-11-09T13:09:44.782Z,97952.22
2022-11-09T13:12:27.368Z,97954.56
2022-11-09T13:14:55.533Z,97942.09
2022-11-09T13:17:25.116Z,97950.44
2022-11-09T13:19:54.666Z,97956.97
2022-11-09T13:22:21.253Z,97953.06
2022-11-09T13:24:59.831Z,97954.78
2022-11-09T13:27:46.567Z,97954.88
2022-11-09T13:30:40.849Z,97970.75
2022-11-09T13:33:07.473Z,97970.50
2022-11-09T13:35:40.045Z,97966.22
2022-11-09T13:38:28.674Z,97972.38
2022-11-09T13:40:57.636Z,97969.16
2022-11-09T13:43:33.110Z,97970.41
2022-11-09T13:46:03.959Z,97978.13
2022-11-09T13:48:36.748Z,97966.78
2022-11-09T13:51:13.043Z,97975.47
2022-11-09T13:53:39.553Z,97976.31
2022-11-09T13:56:27.791Z,97970.66
2022-11-09T13:59:09.456Z,97983.97
2022-11-09T14:01:49.620Z,97986.53
2022-11-09T14:04:31.236Z,97974.53
2022-11-09T14:07:05.475Z,97984.88
2022-11-09T14:10:16.386Z,97983.22
2022-11-09T14:12:45.943Z,97983.63
2022-11-09T14:15:34.079Z,97982.38
2022-11-09T14:18:20.726Z,97990.47
2022-11-09T14:20:53.565Z,97988.69
2022-11-09T14:23:22.992Z,97989.53
2022-11-09T14:25:49.991Z,97993.88
2022-11-09T14:28:23.251Z,97993.31
2022-11-09T14:30:50.627Z,97990.03
2022-11-09T14:33:29.059Z,97984.69
2022-11-09T14:35:58.016Z,97988.81
2022-11-09T14:38:34.503Z,97987.25
2022-11-09T14:41:02.632Z,97996.56
2022-11-09T14:43:45.541Z,98004.72
2022-11-09T14:46:19.442Z,98012.00
2022-11-09T14:48:54.789Z,98020.84
2022-11-09T14:51:32.296Z,98022.03
2022-11-09T14:54:01.551Z,98024.16
2022-11-09T14:56:30.037Z,98032.00
2022-11-09T14:58:58.266Z,98018.78
2022-11-09T15:01:27.124Z,98028.78
2022-11-09T15:04:07.280Z,98031.91
2022-11-09T15:06:34.967Z,98022.69
2022-11-09T15:09:09.150Z,98022.41
2022-11-09T15:11:41.179Z,98026.47
2022-11-09T15:14:19.728Z,98030.34
2022-11-09T15:16:48.229Z,98031.97
2022-11-09T15:19:29.597Z,98032.09
2022-11-09T15:21:59.898Z,98033.97
2022-11-09T15:24:30.137Z,98037.28
2022-11-09T15:26:57.710Z,98027.38
2022-11-09T15:29:36.887Z,98027.94
2022-11-09T15:32:19.701Z,98041.53
2022-11-09T15:34:54.203Z,98032.16
2022-11-09T15:37:47.003Z,98038.38
2022-11-09T15:40:24.938Z,98040.81
2022-11-09T15:42:52.383Z,98044.88
2022-11-09T15:45:20.815Z,98037.31
2022-11-09T15:47:56.699Z,98043.19
2022-11-09T15:50:26.934Z,98046.16
2022-11-09T15:52:53.685Z,98045.63
2022-11-09T15:55:23.275Z,98053.69
2022-11-09T15:57:52.662Z,98051.31
2022-11-09T16:00:21.425Z,98056.50
2022-11-09T16:02:49.030Z,98058.75
2022-11-09T16:05:16.172Z,98060.00
2022-11-09T16:07:54.002Z,98064.94
2022-11-09T16:10:23.411Z,98073.00
2022-11-09T16:12:53.369Z,98063.31
2022-11-09T16:15:20.459Z,98063.44
2022-11-09T16:17:49.863Z,98074.13
2022-11-09T16:20:17.946Z,98071.75
2022-11-09T16:22:45.025Z,98072.75
2022-11-09T16:25:12.388Z,98084.59
2022-11-09T16:27:55.035Z,98086.53
2022-11-09T16:30:22.059Z,98090.72
2022-11-09T16:32:48.720Z,98082.31
2022-11-09T16:35:30.705Z,98094.38
2022-11-09T16:37:58.191Z,98094.88
2022-11-09T16:40:26.037Z,98095.63
2022-11-09T16:42:52.683Z,98115.94
2022-11-09T16:45:19.970Z,98107.81
2022-11-09T16:47:50.586Z,98104.53
2022-11-09T16:50:17.739Z,98105.22
2022-11-09T16:52:45.043Z,98104.16
2022-11-09T16:55:11.942Z,98113.94
2022-11-09T16:57:38.568Z,98109.88
2022-11-09T17:00:07.310Z,98104.50
2022-11-09T17:02:34.356Z,98111.53
2022-11-09T17:05:01.017Z,98111.53
2022-11-09T17:07:28.067Z,98106.06
2022-11-09T17:09:54.774Z,98104.13
2022-11-09T17:12:21.414Z,98105.13
2022-11-09T17:14:47.959Z,98120.22
2022-11-09T17:17:21.193Z,98115.88
2022-11-09T17:19:49.288Z,98115.09
2022-11-09T17:22:16.358Z,98116.81
2022-11-09T17:24:43.039Z,98109.72
2022-11-09T17:27:10.993Z,98115.09
2022-11-09T17:29:37.965Z,98116.94
2022-11-09T17:32:07.357Z,98111.03
2022-11-09T17:34:34.261Z,98114.53
2022-11-09T17:37:05.588Z,98124.50
2022-11-09T17:39:33.300Z,98131.72
2022-11-09T17:42:00.184Z,98125.41
2022-11-09T17:44:26.897Z,98137.47
2022-11-09T17:46:53.628Z,98133.75
2022-11-09T17:49:20.218Z,98136.03
2022-11-09T17:51:46.889Z,98143.03
2022-11-09T17:54:15.188Z,98150.84
2022-11-09T17:56:42.160Z,98152.41
2022-11-09T17:59:09.140Z,98156.84
2022-11-09T18:01:41.078Z,98167.13
2022-11-09T18:04:10.806Z,98160.19
2022-11-09T18:06:38.443Z,98163.91
2022-11-09T18:11:52.766Z,98169.97
2022-11-09T18:14:19.686Z,98182.03
2022-11-09T18:16:46.556Z,98176.66
2022-11-09T18:19:13.321Z,98175.13
2022-11-09T18:21:39.970Z,98163.47
2022-11-09T18:24:07.081Z,98168.78
2022-11-09T18:26:34.394Z,98170.81
2022-11-09T18:29:01.048Z,98174.19
2022-11-09T18:31:27.699Z,98169.41
2022-11-09T18:33:54.388Z,98170.25
2022-11-09T18:36:21.802Z,98167.81
2022-11-09T18:38:51.264Z,98178.38
2022-11-09T18:41:20.816Z,98177.56
2022-11-09T18:43:48.392Z,98173.34
2022-11-09T18:46:17.017Z,98182.16
2022-11-09T18:48:44.646Z,98180.53
2022-11-09T18:51:11.804Z,98185.72
2022-11-09T18:53:41.034Z,98189.16
2022-11-09T18:56:18.491Z,98181.81
2022-11-09T18:58:46.194Z,98180.53
2022-11-09T19:01:13.208Z,98196.72
2022-11-09T19:03:40.243Z,98187.09
2022-11-09T19:06:18.222Z,98194.88
2022-11-09T19:09:04.345Z,98195.84
2022-11-09T19:11:32.046Z,98195.56
2022-11-09T19:13:59.065Z,98201.44
2022-11-09T19:16:26.662Z,98190.22
2022-11-09T19:18:53.734Z,98208.75
2022-11-09T19:21:35.863Z,98206.47
2022-11-09T19:24:03.400Z,98207.63
2022-11-09T19:26:30.447Z,98204.69
2022-11-09T19:28:57.037Z,98217.38
2022-11-09T19:31:24.731Z,98228.28
2022-11-09T19:33:54.505Z,98231.44
2022-11-09T19:36:30.386Z,98225.81
2022-11-09T19:38:57.761Z,98241.63
2022-11-09T19:41:25.505Z,98243.34
2022-11-09T19:43:54.877Z,98241.00
2022-11-09T19:46:21.889Z,98238.47
2022-11-09T19:48:48.719Z,98244.56
2022-11-09T19:51:17.267Z,98242.97
2022-11-09T19:53:50.374Z,98250.47
2022-11-09T19:56:18.362Z,98248.25
2022-11-09T19:58:49.365Z,98244.69
2022-11-09T20:01:16.398Z,98244.78
2022-11-09T20:03:43.217Z,98256.53
2022-11-09T20:06:09.939Z,98253.22
2022-11-09T20:08:37.920Z,98255.88
2022-11-09T20:11:09.643Z,98260.84
2022-11-09T20:13:38.821Z,98265.47
2022-11-09T20:16:08.140Z,98260.28
2022-11-09T20:18:36.450Z,98265.53
2022-11-09T20:21:04.229Z,98264.91
2022-11-09T20:23:30.832Z,98288.44
2022-11-09T20:26:08.361Z,98288.56
2022-11-09T20:28:35.561Z,98289.28
2022-11-09T20:31:09.050Z,98285.13
2022-11-09T20:33:35.590Z,98287.78
2022-11-09T20:36:02.278Z,98300.13
2022-11-09T20:38:29.455Z,98296.69
2022-11-09T20:40:57.884Z,98302.88
2022-11-09T20:43:25.979Z,98320.28
2022-11-09T20:45:53.233Z,98311.72
2022-11-09T20:48:46.964Z,98317.25
2022-11-09T20:51:09.092Z,98319.13
2022-11-09T20:53:36.476Z,98320.84
2022-11-09T20:56:03.734Z,98326.94
2022-11-09T20:58:30.439Z,98322.41
2022-11-09T21:01:09.130Z,98335.59
2022-11-09T21:03:35.840Z,98332.41
2022-11-09T21:06:05.098Z,98335.75
2022-11-09T21:08:33.410Z,98332.34
2022-11-09T21:11:01.708Z,98335.97
2022-11-09T21:13:28.841Z,98338.00
2022-11-09T21:15:55.430Z,98341.34
2022-11-09T21:18:22.586Z,98341.06
2022-11-09T21:20:49.475Z,98339.28
2022-11-09T21:23:16.081Z,98337.31
2022-11-09T21:26:02.621Z,98344.47
2022-11-09T21:28:48.192Z,98343.72
2022-11-09T21:31:15.069Z,98344.72
2022-11-09T21:33:41.668Z,98350.75
2022-11-09T21:36:13.400Z,98351.84
2022-11-09T21:38:40.337Z,98358.50
2022-11-09T21:41:27.409Z,98361.91
2022-11-09T21:43:55.124Z,98361.16
2022-11-09T21:46:22.994Z,98367.72
2022-11-09T21:48:50.505Z,98377.56
2022-11-09T21:51:17.746Z,98379.59
2022-11-09T21:53:44.357Z,98377.06
2022-11-09T21:56:11.357Z,98390.25
2022-11-09T21:58:37.928Z,98397.28
2022-11-09T22:01:10.719Z,98400.78
2022-11-09T22:03:38.183Z,98415.16
2022-11-09T22:06:05.301Z,98412.41
2022-11-09T22:08:31.802Z,98421.31
2022-11-09T22:11:06.825Z,98420.41
2022-11-09T22:13:52.751Z,98427.41
2022-11-09T22:16:20.737Z,98432.69
2022-11-09T22:19:06.176Z,98427.69
2022-11-09T22:21:33.173Z,98434.56
2022-11-09T22:24:00.741Z,98441.66
2022-11-09T22:26:28.983Z,98435.03
2022-11-09T22:28:57.223Z,98450.13
2022-11-09T22:31:24.493Z,98444.06
2022-11-09T22:33:51.582Z,98443.84
2022-11-09T22:36:18.702Z,98442.25
2022-11-09T22:38:46.549Z,98447.97
2022-11-09T22:41:14.776Z,98456.03
2022-11-09T22:43:42.906Z,98454.50
2022-11-09T22:46:17.249Z,98459.56
2022-11-09T22:48:44.604Z,98466.81
2022-11-09T22:51:16.357Z,98463.31
2022-11-09T22:53:43.024Z,98463.47
2022-11-09T22:56:11.158Z,98473.91
2022-11-09T22:58:37.853Z,98477.38
2022-11-09T23:01:16.179Z,98478.03
2022-11-09T23:03:42.985Z,98488.56
2022-11-09T23:06:20.892Z,98494.03
2022-11-09T23:08:47.940Z,98490.78
2022-11-09T23:11:20.681Z,98494.09
2022-11-09T23:13:52.029Z,98495.38
2022-11-09T23:16:19.123Z,98501.66
2022-11-09T23:18:55.093Z,98500.84
2022-11-09T23:21:31.345Z,98508.63
2022-11-09T23:24:02.468Z,98517.25
2022-11-09T23:26:29.691Z,98514.78
2022-11-09T23:28:56.894Z,98520.53
2022-11-09T23:31:24.856Z,98517.97
2022-11-09T23:33:54.568Z,98512.06
2022-11-09T23:36:22.786Z,98524.31
2022-11-09T23:38:49.747Z,98527.78
2022-11-09T23:41:17.006Z,98520.06
2022-11-09T23:43:48.737Z,98526.13
2022-11-09T23:46:16.557Z,98529.66
2022-11-09T23:48:43.445Z,98526.91
2022-11-09T23:51:10.419Z,98526.84
2022-11-09T23:53:37.295Z,98537.44
2022-11-09T23:56:09.171Z,98533.84
2022-11-09T23:58:36.683Z,98537.28
